Time;durP1;ratioP1;P1;durP2;ratioP2;P2;SDS_P1;SDS_P2;PMS_P1;PMS_P2;Temp;Humidity;BMP_temperature;BMP_pressure;BME280_temperature;BME280_humidity;BME280_pressure;Samples;Min_cycle;Max_cycle;Signal;HPM_P1;HPM_P2
2022/10/11 00:01:57;;;;;;;8.73;2.65;;;12.90;92.30;;;;;;5034879;28;20036;-70
2022/10/11 00:04:23;;;;;;;10.15;2.42;;;12.90;92.30;;;;;;5034789;28;20021;-70
2022/10/11 00:06:49;;;;;;;11.68;2.45;;;13.00;92.30;;;;;;5034700;28;20026;-70
2022/10/11 00:09:15;;;;;;;7.97;2.20;;;13.10;92.20;;;;;;5034950;28;20099;-70
2022/10/11 00:11:43;;;;;;;8.30;2.42;;;13.10;92.10;;;;;;5034750;28;20408;-70
2022/10/11 00:14:08;;;;;;;9.25;2.38;;;13.10;92.10;;;;;;5034535;28;20028;-70
2022/10/11 00:16:34;;;;;;;9.63;2.95;;;13.10;92.10;;;;;;5034544;28;20029;-70
2022/10/11 00:19:00;;;;;;;11.15;2.60;;;13.10;92.10;;;;;;5034698;28;20037;-70
2022/10/11 00:21:25;;;;;;;8.77;2.20;;;13.10;92.20;;;;;;5034487;28;20405;-69
2022/10/11 00:23:51;;;;;;;11.65;2.92;;;13.10;92.10;;;;;;5041466;28;20037;-69
2022/10/11 00:26:17;;;;;;;12.07;2.65;;;13.10;92.10;;;;;;5034491;28;20021;-69
2022/10/11 00:28:42;;;;;;;9.10;2.33;;;13.10;92.10;;;;;;5034542;28;20041;-70
2022/10/11 00:31:10;;;;;;;6.28;2.15;;;13.00;92.00;;;;;;5034500;28;20052;-70
2022/10/11 00:33:36;;;;;;;19.92;2.60;;;13.00;92.30;;;;;;5034285;28;20033;-70
2022/10/11 00:36:02;;;;;;;8.48;1.88;;;12.90;92.10;;;;;;5034419;28;20404;-70
2022/10/11 00:38:28;;;;;;;46.35;2.50;;;12.90;92.10;;;;;;5034055;28;20041;-70
2022/10/11 00:40:54;;;;;;;2.92;1.60;;;12.90;92.10;;;;;;5034113;28;20100;-70
2022/10/11 00:43:23;;;;;;;3.20;1.70;;;12.90;92.20;;;;;;5034149;28;20025;-70
2022/10/11 00:45:59;;;;;;;3.38;1.40;;;12.90;92.20;;;;;;5034390;28;20049;-70
2022/10/11 00:48:47;;;;;;;2.92;1.48;;;12.90;92.30;;;;;;5034075;28;20067;-70
2022/10/11 00:51:36;;;;;;;2.95;1.50;;;12.90;92.50;;;;;;5033871;28;20539;-69
2022/10/11 00:54:03;;;;;;;2.85;1.63;;;12.80;92.20;;;;;;5034134;28;20033;-69
2022/10/11 00:56:35;;;;;;;5.13;1.30;;;12.80;92.30;;;;;;5033645;28;20025;-69
2022/10/11 00:59:05;;;;;;;3.53;1.55;;;12.80;92.30;;;;;;5033697;28;20481;-70
2022/10/11 01:01:31;;;;;;;4.75;1.63;;;12.80;92.30;;;;;;5033694;28;20068;-70
2022/10/11 01:03:57;;;;;;;4.13;1.75;;;12.80;92.30;;;;;;5033492;28;20053;-70
2022/10/11 01:06:23;;;;;;;3.53;1.55;;;12.80;92.30;;;;;;5033762;28;20021;-69
2022/10/11 01:08:50;;;;;;;3.75;1.42;;;12.80;92.50;;;;;;5033721;28;20017;-69
2022/10/11 01:11:20;;;;;;;3.78;1.75;;;12.80;92.30;;;;;;5033829;28;20037;-70
2022/10/11 01:14:25;;;;;;;4.78;1.60;;;12.80;92.20;;;;;;5033747;28;20025;-69
2022/10/11 01:17:17;;;;;;;5.05;1.60;;;12.70;92.10;;;;;;5031654;28;20485;-69
2022/10/11 01:19:57;;;;;;;6.45;1.50;;;12.70;92.10;;;;;;5037009;28;20041;-69
2022/10/11 01:22:52;;;;;;;6.13;2.17;;;12.70;92.10;;;;;;5037189;28;20136;-69
2022/10/11 01:25:30;;;;;;;5.25;2.03;;;12.60;92.10;;;;;;5025421;28;20496;-70
2022/10/11 01:28:02;;;;;;;7.03;2.05;;;12.70;92.10;;;;;;5033164;28;20509;-69
2022/10/11 01:30:35;;;;;;;5.22;1.75;;;12.60;92.10;;;;;;5033559;28;20021;-69
2022/10/11 01:33:23;;;;;;;5.95;2.40;;;12.60;92.20;;;;;;5033447;28;20022;-70
2022/10/11 01:35:57;;;;;;;6.32;2.10;;;12.60;92.20;;;;;;5033182;28;20029;-69
2022/10/11 01:38:32;;;;;;;5.53;2.25;;;12.50;92.10;;;;;;5033398;28;20120;-69
2022/10/11 01:41:02;;;;;;;5.43;2.10;;;12.50;92.20;;;;;;5033212;28;20021;-70
2022/10/11 01:43:29;;;;;;;6.78;2.33;;;12.50;92.20;;;;;;5033003;28;20033;-69
2022/10/11 01:45:57;;;;;;;8.98;2.30;;;12.50;92.50;;;;;;5033007;28;20535;-69
2022/10/11 01:48:22;;;;;;;6.55;2.28;;;12.50;92.30;;;;;;5033122;28;20033;-70
2022/10/11 01:50:55;;;;;;;5.85;2.25;;;12.50;92.20;;;;;;5033298;28;20104;-70
2022/10/11 01:53:46;;;;;;;7.65;2.70;;;12.50;92.20;;;;;;5033252;28;20034;-69
2022/10/11 01:56:45;;;;;;;6.85;2.08;;;12.50;92.20;;;;;;5032793;28;20022;-70
2022/10/11 01:59:30;;;;;;;6.50;2.47;;;12.50;92.20;;;;;;5033262;28;20480;-69
2022/10/11 02:02:01;;;;;;;8.68;2.35;;;12.50;92.20;;;;;;5033309;28;20075;-70
2022/10/11 02:04:32;;;;;;;6.07;2.10;;;12.50;92.20;;;;;;5032992;28;20392;-70
2022/10/11 02:07:07;;;;;;;7.68;2.30;;;12.40;92.20;;;;;;5032989;28;20017;-70
2022/10/11 02:09:40;;;;;;;6.38;2.13;;;12.50;92.20;;;;;;5033102;28;20061;-68
2022/10/11 02:12:10;;;;;;;6.38;2.10;;;12.40;92.20;;;;;;5033259;28;20018;-69
2022/10/11 02:14:41;;;;;;;6.00;2.20;;;12.50;92.20;;;;;;5033206;28;20029;-69
2022/10/11 02:17:13;;;;;;;5.40;2.10;;;12.40;92.20;;;;;;5037640;28;20081;-70
2022/10/11 02:19:43;;;;;;;6.78;2.40;;;12.40;92.20;;;;;;5037777;28;20034;-69
2022/10/11 02:22:17;;;;;;;7.60;2.13;;;12.40;92.10;;;;;;5034911;28;20083;-70
2022/10/11 02:24:49;;;;;;;6.25;2.20;;;12.40;92.10;;;;;;5033260;28;20388;-70
2022/10/11 02:27:19;;;;;;;7.68;2.83;;;12.40;92.10;;;;;;5032336;28;20045;-70
2022/10/11 02:29:47;;;;;;;8.68;2.72;;;12.40;92.00;;;;;;5035450;28;20083;-70
2022/10/11 02:32:16;;;;;;;6.78;2.55;;;12.30;92.00;;;;;;5036776;28;20072;-70
2022/10/11 02:34:56;;;;;;;6.28;2.10;;;12.20;92.10;;;;;;5036647;28;20380;-70
2022/10/11 02:37:41;;;;;;;5.10;2.17;;;12.20;92.10;;;;;;5036648;28;20116;-70
2022/10/11 02:40:13;;;;;;;9.15;2.50;;;12.20;92.10;;;;;;5036129;28;20037;-70
2022/10/11 02:42:47;;;;;;;7.05;2.03;;;12.30;92.00;;;;;;5036480;28;20091;-70
2022/10/11 02:45:19;;;;;;;5.35;1.90;;;12.30;92.00;;;;;;5036645;28;20037;-70
2022/10/11 02:47:46;;;;;;;9.05;2.78;;;12.30;92.00;;;;;;5036286;28;20022;-70
2022/10/11 02:50:13;;;;;;;7.32;2.58;;;12.30;92.00;;;;;;5036176;28;20490;-70
2022/10/11 02:52:38;;;;;;;7.75;2.17;;;12.20;91.90;;;;;;5036149;28;20045;-70
2022/10/11 02:55:05;;;;;;;8.35;2.75;;;12.10;91.80;;;;;;5036382;28;20071;-70
2022/10/11 02:57:30;;;;;;;5.68;2.33;;;12.00;91.80;;;;;;5035682;28;20022;-70
2022/10/11 02:59:56;;;;;;;6.95;2.60;;;12.00;92.00;;;;;;5036375;28;20075;-70
2022/10/11 03:02:21;;;;;;;5.65;2.10;;;12.00;92.00;;;;;;5036064;28;20026;-70
2022/10/11 03:04:47;;;;;;;9.88;2.28;;;12.00;92.00;;;;;;5035760;28;20378;-70
2022/10/11 03:07:13;;;;;;;6.32;2.40;;;12.00;91.90;;;;;;5035650;28;20083;-70
2022/10/11 03:09:39;;;;;;;5.88;1.88;;;12.10;91.80;;;;;;5035803;28;20548;-70
2022/10/11 03:12:05;;;;;;;4.90;2.30;;;12.00;91.80;;;;;;5036055;28;20024;-70
2022/10/11 03:14:31;;;;;;;3.47;1.75;;;12.00;91.90;;;;;;5036957;28;20124;-70
2022/10/11 03:16:56;;;;;;;6.28;2.13;;;12.00;91.90;;;;;;5041114;28;20159;-70
2022/10/11 03:19:22;;;;;;;6.40;2.30;;;12.10;91.80;;;;;;5041498;28;20041;-70
2022/10/11 03:21:48;;;;;;;5.30;1.83;;;12.00;91.70;;;;;;5035663;28;20029;-70
2022/10/11 03:24:13;;;;;;;8.50;1.63;;;12.00;91.70;;;;;;5035734;28;20037;-70
2022/10/11 03:26:39;;;;;;;6.75;2.00;;;12.00;91.70;;;;;;5035129;28;20393;-70
2022/10/11 03:29:04;;;;;;;8.63;2.20;;;12.00;91.80;;;;;;5035697;28;20029;-71
2022/10/11 03:31:31;;;;;;;11.00;2.30;;;11.90;91.90;;;;;;5035667;28;20188;-70
2022/10/11 03:33:56;;;;;;;5.55;2.00;;;11.90;92.00;;;;;;5035627;28;20473;-71
2022/10/11 03:36:22;;;;;;;5.60;1.70;;;11.70;92.10;;;;;;5035291;28;20049;-71
2022/10/11 03:38:48;;;;;;;4.82;1.83;;;11.70;92.40;;;;;;5035415;28;20379;-71
2022/10/11 03:41:13;;;;;;;5.53;1.67;;;11.60;92.50;;;;;;5034855;28;20033;-71
2022/10/11 03:43:39;;;;;;;3.47;1.60;;;11.60;92.50;;;;;;5035388;28;20496;-70
2022/10/11 03:46:04;;;;;;;3.17;1.45;;;11.70;92.60;;;;;;5035423;28;20068;-70
2022/10/11 03:48:30;;;;;;;3.80;1.77;;;11.70;92.50;;;;;;5035065;28;20052;-70
2022/10/11 03:50:56;;;;;;;4.80;1.80;;;11.80;92.60;;;;;;5035036;28;20032;-70
2022/10/11 03:53:21;;;;;;;6.13;1.50;;;11.80;92.50;;;;;;5035360;28;20480;-70
2022/10/11 03:55:52;;;;;;;3.72;1.90;;;11.80;92.50;;;;;;5034843;28;20025;-70
2022/10/11 03:58:18;;;;;;;3.03;1.88;;;11.80;92.50;;;;;;5034868;28;20033;-70
2022/10/11 04:00:43;;;;;;;4.90;2.03;;;11.80;92.40;;;;;;5035155;28;20025;-70
2022/10/11 04:03:09;;;;;;;3.95;1.60;;;11.80;92.50;;;;;;5035016;28;20021;-70
2022/10/11 04:05:35;;;;;;;3.50;1.70;;;11.90;92.50;;;;;;5034668;28;20087;-70
2022/10/11 04:08:01;;;;;;;4.60;1.88;;;11.90;92.60;;;;;;5035128;28;20111;-70
2022/10/11 04:10:26;;;;;;;2.58;1.38;;;11.90;92.60;;;;;;5036515;28;20102;-70
2022/10/11 04:12:52;;;;;;;2.75;1.40;;;11.90;92.60;;;;;;5044029;28;20085;-70
2022/10/11 04:15:18;;;;;;;4.65;2.15;;;11.90;92.60;;;;;;5040563;28;20049;-70
2022/10/11 04:17:43;;;;;;;3.67;1.65;;;12.00;92.60;;;;;;5035502;28;20033;-70
2022/10/11 04:20:09;;;;;;;3.55;1.40;;;12.00;92.70;;;;;;5034866;28;20037;-69
2022/10/11 04:22:35;;;;;;;3.53;2.00;;;12.00;92.60;;;;;;5034648;28;20465;-69
2022/10/11 04:25:01;;;;;;;2.88;1.75;;;12.00;92.70;;;;;;5034255;28;20028;-70
2022/10/11 04:27:27;;;;;;;5.20;2.08;;;12.00;92.70;;;;;;5034174;28;20049;-70
2022/10/11 04:29:53;;;;;;;4.05;1.65;;;12.00;92.80;;;;;;5034555;28;20090;-70
2022/10/11 04:32:19;;;;;;;5.22;1.60;;;12.00;92.80;;;;;;5034018;28;20032;-69
2022/10/11 04:34:44;;;;;;;5.15;1.67;;;12.00;92.80;;;;;;5034293;28;20029;-69
2022/10/11 04:37:10;;;;;;;6.30;2.25;;;12.00;92.80;;;;;;5034391;28;20029;-69
2022/10/11 04:39:36;;;;;;;7.50;2.72;;;12.00;92.90;;;;;;5034417;28;20041;-70
2022/10/11 04:42:03;;;;;;;5.65;1.88;;;12.00;92.80;;;;;;5034355;28;20044;-70
2022/10/11 04:44:29;;;;;;;5.38;2.13;;;11.90;92.90;;;;;;5033910;28;20029;-70
2022/10/11 04:46:55;;;;;;;6.60;2.30;;;11.90;93.00;;;;;;5033929;28;20488;-71
2022/10/11 04:49:21;;;;;;;7.60;2.17;;;11.90;93.00;;;;;;5033962;28;20030;-70
2022/10/11 04:51:47;;;;;;;10.18;2.33;;;12.00;93.00;;;;;;5033226;28;20029;-70
2022/10/11 04:54:13;;;;;;;7.43;2.13;;;12.00;93.10;;;;;;5034055;28;20048;-70
2022/10/11 04:56:38;;;;;;;7.25;2.13;;;12.00;93.10;;;;;;5033642;28;20030;-70
2022/10/11 04:59:04;;;;;;;7.25;2.42;;;12.00;93.00;;;;;;5033961;28;20084;-70
2022/10/11 05:01:30;;;;;;;5.57;2.30;;;12.00;93.00;;;;;;5033611;28;20029;-71
2022/10/11 05:03:55;;;;;;;7.03;2.40;;;12.10;93.00;;;;;;5033907;28;20100;-70
2022/10/11 05:06:21;;;;;;;5.88;1.85;;;12.10;93.10;;;;;;5033797;28;20354;-70
2022/10/11 05:08:47;;;;;;;8.98;2.70;;;12.10;93.00;;;;;;5035529;28;20108;-71
2022/10/11 05:11:15;;;;;;;6.22;2.13;;;12.20;93.00;;;;;;5038652;28;20017;-72
2022/10/11 05:13:41;;;;;;;7.53;2.35;;;12.20;93.00;;;;;;5033290;28;20040;-72
2022/10/11 05:16:07;;;;;;;8.65;2.38;;;12.20;92.90;;;;;;5033319;28;20026;-71
2022/10/11 05:18:33;;;;;;;9.00;2.95;;;12.20;92.90;;;;;;5032507;28;20183;-71
2022/10/11 05:21:01;;;;;;;11.27;2.95;;;12.00;92.30;;;;;;5032776;28;20017;-71
2022/10/11 05:23:28;;;;;;;8.18;2.50;;;11.70;92.70;;;;;;5033277;28;20108;-71
2022/10/11 05:25:54;;;;;;;7.60;2.83;;;11.60;93.10;;;;;;5033378;28;20029;-71
2022/10/11 05:28:19;;;;;;;7.85;2.80;;;11.60;93.20;;;;;;5032974;28;20056;-71
2022/10/11 05:30:48;;;;;;;8.27;3.15;;;11.60;93.30;;;;;;5033473;28;20036;-72
2022/10/11 05:33:14;;;;;;;6.55;2.63;;;11.50;93.30;;;;;;5033179;28;20026;-71
2022/10/11 05:35:39;;;;;;;7.32;2.20;;;11.40;93.50;;;;;;5033260;28;20022;-71
2022/10/11 05:38:05;;;;;;;6.97;2.00;;;11.40;93.50;;;;;;5033466;28;20029;-71
2022/10/11 05:40:32;;;;;;;6.13;2.22;;;11.50;93.50;;;;;;5033112;28;20112;-71
2022/10/11 05:42:57;;;;;;;6.40;2.20;;;11.60;93.50;;;;;;5033237;28;20021;-71
2022/10/11 05:45:23;;;;;;;8.07;2.35;;;11.70;93.40;;;;;;5033307;28;20032;-71
2022/10/11 05:47:49;;;;;;;5.93;1.80;;;11.80;93.40;;;;;;5033480;28;20029;-71
2022/10/11 05:50:15;;;;;;;9.02;2.33;;;11.80;93.20;;;;;;5033362;28;20436;-71
2022/10/11 05:52:40;;;;;;;5.95;2.53;;;11.90;93.20;;;;;;5033319;28;20033;-72
2022/10/11 05:55:06;;;;;;;11.30;3.00;;;11.90;93.10;;;;;;5032860;28;20076;-71
2022/10/11 05:57:32;;;;;;;5.50;2.28;;;11.90;92.90;;;;;;5033051;28;20595;-71
2022/10/11 05:59:57;;;;;;;6.43;2.35;;;11.90;92.90;;;;;;5033318;28;20049;-72
2022/10/11 06:02:24;;;;;;;5.13;1.70;;;11.90;92.90;;;;;;5033312;28;20022;-72
2022/10/11 06:04:51;;;;;;;7.22;2.40;;;12.00;92.90;;;;;;5037326;28;20052;-72
2022/10/11 06:07:17;;;;;;;6.43;2.00;;;12.00;92.90;;;;;;5038998;28;20100;-72
2022/10/11 06:09:42;;;;;;;3.50;1.60;;;12.00;92.80;;;;;;5041664;28;20607;-72
2022/10/11 06:12:08;;;;;;;6.57;2.47;;;12.00;92.70;;;;;;5039359;28;20488;-72
2022/10/11 06:14:34;;;;;;;23.55;1.98;;;12.00;92.70;;;;;;5036866;28;20033;-70
2022/10/11 06:17:00;;;;;;;3.45;1.60;;;12.00;92.70;;;;;;5037161;28;20057;-72
2022/10/11 06:19:25;;;;;;;12.73;1.90;;;12.10;92.80;;;;;;5036461;28;20203;-72
2022/10/11 06:21:51;;;;;;;6.18;1.73;;;12.00;92.90;;;;;;5036967;28;20029;-72
2022/10/11 06:24:17;;;;;;;11.27;2.45;;;11.90;93.10;;;;;;5036737;28;20033;-72
2022/10/11 06:26:43;;;;;;;6.20;2.00;;;11.90;93.30;;;;;;5036426;28;20121;-72
2022/10/11 06:29:09;;;;;;;6.05;1.73;;;11.80;93.30;;;;;;5036692;28;20049;-73
2022/10/11 06:31:35;;;;;;;3.55;1.85;;;11.90;93.20;;;;;;5036606;28;20488;-72
2022/10/11 06:34:00;;;;;;;2.05;1.40;;;11.90;93.20;;;;;;5036333;28;20032;-72
2022/10/11 06:36:26;;;;;;;3.80;1.75;;;11.90;93.20;;;;;;5036203;28;20021;-72
2022/10/11 06:38:53;;;;;;;5.45;2.22;;;11.90;93.20;;;;;;5036464;28;20071;-72
2022/10/11 06:41:22;;;;;;;6.05;2.42;;;11.90;93.40;;;;;;5036428;28;20021;-72
2022/10/11 06:43:48;;;;;;;5.53;2.20;;;11.90;93.20;;;;;;5036073;28;20030;-72
2022/10/11 06:46:14;;;;;;;2.63;1.27;;;12.00;93.20;;;;;;5036224;28;20056;-72
2022/10/11 06:48:44;;;;;;;5.63;1.80;;;12.00;93.20;;;;;;5035972;28;20025;-72
2022/10/11 06:51:12;;;;;;;4.03;1.90;;;12.00;93.20;;;;;;5036037;28;20029;-72
2022/10/11 06:53:37;;;;;;;3.30;1.75;;;12.00;93.30;;;;;;5036072;28;20091;-72
2022/10/11 06:56:06;;;;;;;3.20;1.60;;;12.00;93.20;;;;;;5035973;28;20064;-72
2022/10/11 06:58:34;;;;;;;5.15;1.65;;;12.10;93.20;;;;;;5035958;28;20269;-72
2022/10/11 07:01:02;;;;;;;3.05;1.60;;;12.10;93.40;;;;;;5036135;28;20109;-72
2022/10/11 07:03:28;;;;;;;4.85;1.92;;;12.00;93.40;;;;;;5038139;28;20025;-71
2022/10/11 07:06:09;;;;;;;7.45;2.42;;;12.10;93.50;;;;;;5045000;28;20025;-72
2022/10/11 07:08:35;;;;;;;6.28;2.13;;;12.20;93.50;;;;;;5036014;28;20033;-72
2022/10/11 07:11:03;;;;;;;2.70;1.95;;;12.20;93.60;;;;;;5035428;28;20021;-72
2022/10/11 07:13:29;;;;;;;7.20;2.33;;;12.20;93.70;;;;;;5035855;28;20025;-72
2022/10/11 07:15:55;;;;;;;6.15;2.05;;;12.20;93.70;;;;;;5034847;28;20021;-72
2022/10/11 07:18:21;;;;;;;4.93;2.50;;;12.30;93.80;;;;;;5035429;28;20029;-72
2022/10/11 07:20:46;;;;;;;4.88;2.08;;;12.30;93.90;;;;;;5035688;28;20371;-72
2022/10/11 07:23:12;;;;;;;7.00;2.67;;;12.30;93.90;;;;;;5035625;28;20037;-72
2022/10/11 07:25:38;;;;;;;7.30;2.97;;;12.30;93.90;;;;;;5035404;28;20470;-72
2022/10/11 07:28:03;;;;;;;6.30;2.83;;;12.30;94.00;;;;;;5035031;28;20053;-72
2022/10/11 07:30:29;;;;;;;5.82;2.30;;;12.30;94.10;;;;;;5035580;28;20021;-72
2022/10/11 07:32:55;;;;;;;10.02;3.63;;;12.30;94.10;;;;;;5035131;28;20071;-72
2022/10/11 07:35:20;;;;;;;6.93;2.95;;;12.30;94.10;;;;;;5035386;28;20033;-72
2022/10/11 07:37:46;;;;;;;6.85;2.80;;;12.40;94.20;;;;;;5035209;28;20477;-72
2022/10/11 07:40:12;;;;;;;5.30;2.63;;;12.40;94.30;;;;;;5035074;28;20517;-72
2022/10/11 07:42:38;;;;;;;7.28;3.20;;;12.30;94.20;;;;;;5034754;28;20025;-72
2022/10/11 07:45:04;;;;;;;10.25;3.42;;;12.30;94.10;;;;;;5035248;28;20350;-72
2022/10/11 07:47:30;;;;;;;8.57;2.83;;;12.30;94.10;;;;;;5034732;28;20030;-72
2022/10/11 07:49:55;;;;;;;5.20;2.50;;;12.30;94.10;;;;;;5034906;28;20029;-73
2022/10/11 07:52:21;;;;;;;7.75;2.97;;;12.30;94.10;;;;;;5034734;28;20031;-73
2022/10/11 07:54:49;;;;;;;6.30;3.15;;;12.30;94.10;;;;;;5034932;28;20465;-72
2022/10/11 07:57:15;;;;;;;11.55;3.17;;;12.30;94.20;;;;;;5035137;28;20017;-71
2022/10/11 07:59:42;;;;;;;8.88;2.83;;;12.30;94.30;;;;;;5035803;28;20554;-71
2022/10/11 08:02:10;;;;;;;8.23;3.33;;;12.30;94.30;;;;;;5042376;28;20436;-72
2022/10/11 08:04:36;;;;;;;9.15;2.65;;;12.30;94.50;;;;;;5035318;28;20025;-71
2022/10/11 08:07:02;;;;;;;11.43;3.22;;;12.40;94.70;;;;;;5034678;28;20041;-72
2022/10/11 08:09:28;;;;;;;13.38;3.10;;;12.40;94.70;;;;;;5034548;28;20021;-72
2022/10/11 08:11:54;;;;;;;9.32;2.75;;;12.40;94.60;;;;;;5034807;28;20029;-72
2022/10/11 08:14:20;;;;;;;9.98;3.15;;;12.40;94.50;;;;;;5034395;28;20064;-72
2022/10/11 08:16:46;;;;;;;9.20;3.13;;;12.40;94.40;;;;;;5034673;28;20028;-72
2022/10/11 08:19:11;;;;;;;10.73;3.40;;;12.50;94.40;;;;;;5034686;28;20057;-72
2022/10/11 08:21:37;;;;;;;14.25;4.28;;;12.50;94.50;;;;;;5034323;28;20074;-72
2022/10/11 08:24:04;;;;;;;9.43;2.72;;;12.60;94.60;;;;;;5034406;28;20018;-72
2022/10/11 08:26:31;;;;;;;7.13;2.97;;;12.50;94.60;;;;;;5034120;28;20563;-72
2022/10/11 08:28:58;;;;;;;10.20;2.60;;;12.50;94.60;;;;;;5034653;28;20061;-72
2022/10/11 08:31:23;;;;;;;9.40;3.45;;;12.60;94.60;;;;;;5034490;28;20036;-71
2022/10/11 08:33:49;;;;;;;11.35;3.22;;;12.70;94.50;;;;;;5034313;28;20025;-71
2022/10/11 08:36:14;;;;;;;7.90;3.17;;;12.70;94.60;;;;;;5033636;28;20461;-72
2022/10/11 08:38:41;;;;;;;6.13;2.75;;;12.80;94.70;;;;;;5034372;28;20033;-71
2022/10/11 08:41:26;;;;;;;9.00;2.40;;;12.90;94.70;;;;;;5034009;28;20032;-71
2022/10/11 08:44:04;;;;;;;9.18;2.78;;;13.00;94.50;;;;;;5034338;28;20075;-72
2022/10/11 08:46:33;;;;;;;6.90;2.53;;;13.10;94.40;;;;;;5033760;28;20109;-71
2022/10/11 08:49:00;;;;;;;7.50;2.25;;;13.20;94.40;;;;;;5033662;28;20104;-72
2022/10/11 08:51:49;;;;;;;10.48;2.60;;;13.30;94.40;;;;;;5033511;28;20128;-72
2022/10/11 08:54:33;;;;;;;12.65;2.85;;;13.40;94.20;;;;;;5033320;28;20041;-72
2022/10/11 08:57:02;;;;;;;7.40;2.53;;;13.50;94.30;;;;;;5033762;28;20112;-72
2022/10/11 08:59:32;;;;;;;9.40;2.70;;;13.60;94.20;;;;;;5034413;28;20041;-72
2022/10/11 09:02:18;;;;;;;11.52;2.70;;;13.80;94.10;;;;;;5033731;28;20029;-72
2022/10/11 09:04:51;;;;;;;10.02;2.63;;;13.90;94.00;;;;;;5033805;28;20065;-72
2022/10/11 09:07:33;;;;;;;7.95;2.53;;;14.10;94.10;;;;;;5033646;28;20358;-71
2022/10/11 09:09:59;;;;;;;10.77;2.47;;;14.20;93.80;;;;;;5033878;28;20029;-71
2022/10/11 09:12:42;;;;;;;9.70;2.50;;;14.30;93.30;;;;;;5033491;28;20045;-71
2022/10/11 09:15:24;;;;;;;9.35;2.22;;;14.40;92.90;;;;;;5033730;28;20033;-72
2022/10/11 09:18:08;;;;;;;9.63;2.42;;;14.50;92.70;;;;;;5033431;28;20060;-73
2022/10/11 09:20:45;;;;;;;10.63;2.00;;;14.60;92.60;;;;;;5033753;28;20036;-73
2022/10/11 09:23:54;;;;;;;6.97;2.67;;;14.70;92.50;;;;;;5033372;28;20025;-72
2022/10/11 09:26:29;;;;;;;9.50;2.47;;;14.80;92.10;;;;;;5033455;28;20090;-72
2022/10/11 09:29:06;;;;;;;9.30;1.90;;;14.90;91.50;;;;;;5033607;28;20037;-73
2022/10/11 09:31:32;;;;;;;10.93;2.33;;;15.00;91.50;;;;;;5033290;28;20555;-72
2022/10/11 09:34:05;;;;;;;8.32;1.88;;;15.10;91.30;;;;;;5033150;28;20112;-72
2022/10/11 09:36:57;;;;;;;11.27;2.20;;;15.10;91.10;;;;;;5033290;28;20022;-71
2022/10/11 09:39:28;;;;;;;11.93;2.25;;;15.20;91.00;;;;;;5033162;28;20049;-71
2022/10/11 09:42:05;;;;;;;11.88;2.20;;;15.20;91.30;;;;;;5033106;28;20052;-72
2022/10/11 09:44:48;;;;;;;13.18;1.88;;;15.40;91.20;;;;;;5033201;28;20052;-72
2022/10/11 09:47:24;;;;;;;14.15;2.50;;;15.50;90.70;;;;;;5032831;28;20030;-72
2022/10/11 09:49:56;;;;;;;11.15;2.60;;;15.60;90.50;;;;;;5032946;28;20025;-72
2022/10/11 09:52:22;;;;;;;9.73;1.80;;;15.70;90.60;;;;;;5032768;28;20036;-72
2022/10/11 09:54:53;;;;;;;11.32;2.17;;;15.80;90.40;;;;;;5041554;28;20033;-71
2022/10/11 09:57:29;;;;;;;10.32;2.40;;;15.90;90.40;;;;;;5033771;28;20033;-72
2022/10/11 10:00:17;;;;;;;12.38;2.38;;;15.90;90.30;;;;;;5033273;28;20041;-72
2022/10/11 10:02:46;;;;;;;7.65;2.00;;;16.10;89.80;;;;;;5033016;28;20488;-72
2022/10/11 10:05:21;;;;;;;9.60;2.50;;;16.20;89.70;;;;;;5032968;28;20112;-72
2022/10/11 10:08:02;;;;;;;8.65;1.90;;;16.30;89.90;;;;;;5032705;28;20099;-72
2022/10/11 10:10:32;;;;;;;14.98;2.40;;;16.40;89.60;;;;;;5033008;28;20029;-72
2022/10/11 10:13:03;;;;;;;11.23;2.13;;;16.50;88.50;;;;;;5032914;28;20442;-72
2022/10/11 10:15:33;;;;;;;15.90;2.25;;;16.60;88.40;;;;;;5032702;28;20026;-72
2022/10/11 10:17:59;;;;;;;9.55;1.63;;;16.70;87.90;;;;;;5032690;28;20536;-72
2022/10/11 10:20:32;;;;;;;13.15;2.60;;;16.80;86.60;;;;;;5032890;28;20112;-73
2022/10/11 10:23:08;;;;;;;11.70;2.03;;;16.90;86.80;;;;;;5033116;28;20025;-72
2022/10/11 10:25:38;;;;;;;10.73;1.80;;;16.90;86.60;;;;;;5033077;28;20132;-73
2022/10/11 10:28:22;;;;;;;10.05;2.00;;;17.00;85.70;;;;;;5032417;28;20049;-73
2022/10/11 10:30:53;;;;;;;11.52;2.50;;;17.00;85.20;;;;;;5032921;28;20148;-73
2022/10/11 10:33:21;;;;;;;7.32;1.60;;;17.20;84.40;;;;;;5032741;28;20611;-73
2022/10/11 10:36:08;;;;;;;12.45;2.03;;;17.20;83.90;;;;;;5032715;28;20076;-73
2022/10/11 10:38:37;;;;;;;8.88;1.77;;;17.30;83.20;;;;;;5032951;28;20040;-73
2022/10/11 10:41:11;;;;;;;9.90;1.67;;;17.40;82.50;;;;;;5032655;28;20104;-73
2022/10/11 10:43:39;;;;;;;15.13;1.95;;;17.40;81.90;;;;;;5033078;28;20037;-73
2022/10/11 10:46:40;;;;;;;13.50;2.28;;;17.40;81.80;;;;;;5033591;28;20407;-73
2022/10/11 10:49:23;;;;;;;13.25;1.58;;;17.50;81.30;;;;;;5038643;28;20033;-73
2022/10/11 10:52:04;;;;;;;10.43;2.03;;;17.50;80.80;;;;;;5038020;28;20033;-73
2022/10/11 10:55:12;;;;;;;8.18;1.77;;;17.40;81.00;;;;;;5036156;28;20053;-73
2022/10/11 10:57:45;;;;;;;10.63;1.73;;;17.50;80.40;;;;;;5019268;28;20448;-80
2022/10/11 11:00:22;;;;;;;10.68;2.17;;;17.70;80.70;;;;;;5046073;28;20041;-84
2022/10/11 11:03:01;;;;;;;9.63;1.60;;;17.90;79.90;;;;;;5041787;28;20083;-87
2022/10/11 11:05:54;;;;;;;10.32;1.52;;;18.00;78.00;;;;;;5036606;28;20029;-82
2022/10/11 11:08:29;;;;;;;9.55;1.98;;;18.10;78.00;;;;;;5037040;28;20026;-77
2022/10/11 11:11:28;;;;;;;9.82;1.92;;;18.20;77.50;;;;;;5036173;28;20044;-75
2022/10/11 11:13:59;;;;;;;11.07;1.65;;;18.30;76.70;;;;;;5037457;28;20030;-77
2022/10/11 11:16:53;;;;;;;11.68;1.80;;;18.40;76.40;;;;;;5035753;28;20025;-80
2022/10/11 11:19:49;;;;;;;14.40;2.33;;;18.50;75.70;;;;;;5050445;28;20064;-75
2022/10/11 11:22:48;;;;;;;6.70;1.40;;;18.40;75.20;;;;;;5049994;28;20041;-77
2022/10/11 11:25:21;;;;;;;11.57;2.28;;;18.40;75.70;;;;;;5015442;28;20028;-77
2022/10/11 11:28:00;;;;;;;9.95;1.90;;;18.50;75.00;;;;;;5029579;28;20076;-79
2022/10/11 11:31:05;;;;;;;7.25;1.27;;;18.60;75.30;;;;;;5035365;28;20055;-78
2022/10/11 11:33:33;;;;;;;11.73;1.63;;;18.80;75.00;;;;;;5044932;28;20021;-90
2022/10/11 11:36:04;;;;;;;8.70;2.17;;;18.90;75.60;;;;;;5042650;28;20068;-90
2022/10/11 11:38:58;;;;;;;11.65;1.40;;;19.00;75.60;;;;;;5036172;28;20052;-90
2022/10/11 11:41:34;;;;;;;12.20;1.95;;;19.10;73.30;;;;;;5037849;28;20061;-90
2022/10/11 11:44:08;;;;;;;8.30;1.55;;;19.10;72.00;;;;;;5037405;28;20026;-81
2022/10/11 11:46:52;;;;;;;8.85;1.50;;;19.10;73.30;;;;;;5052949;28;20053;-83
2022/10/11 11:49:34;;;;;;;9.07;1.40;;;19.20;72.60;;;;;;5043933;28;20381;-78
2022/10/11 11:52:01;;;;;;;8.27;1.38;;;19.40;74.70;;;;;;5035627;28;20025;-86
2022/10/11 11:54:46;;;;;;;6.50;1.20;;;19.40;72.30;;;;;;5036189;28;20483;-87
2022/10/11 11:58:07;;;;;;;6.95;1.10;;;19.40;71.20;;;;;;5034471;28;20068;-72
2022/10/11 12:01:03;;;;;;;9.18;1.40;;;19.40;70.30;;;;;;5008342;28;20583;-73
2022/10/11 12:03:38;;;;;;;9.85;1.83;;;19.40;69.30;;;;;;5023466;28;20033;-73
2022/10/11 12:06:13;;;;;;;11.63;1.63;;;19.30;71.90;;;;;;5034769;28;20087;-73
2022/10/11 12:09:31;;;;;;;7.72;1.38;;;19.30;71.30;;;;;;5034937;28;20033;-73
2022/10/11 12:12:03;;;;;;;11.35;1.50;;;19.30;70.60;;;;;;5012759;28;20058;-73
2022/10/11 12:14:31;;;;;;;9.80;1.02;;;19.50;72.00;;;;;;5030946;28;20040;-72
2022/10/11 12:17:17;;;;;;;10.68;1.30;;;19.70;70.00;;;;;;5036892;28;20029;-72
2022/10/11 12:20:11;;;;;;;9.35;1.38;;;19.80;69.00;;;;;;5043515;28;20041;-73
2022/10/11 12:22:49;;;;;;;9.30;1.23;;;19.90;68.30;;;;;;5036638;28;20425;-73
2022/10/11 12:25:15;;;;;;;8.52;1.10;;;20.10;68.10;;;;;;5046818;28;20037;-72
2022/10/11 12:27:47;;;;;;;11.13;1.83;;;20.00;67.80;;;;;;5044992;28;20051;-74
2022/10/11 12:30:46;;;;;;;8.73;1.50;;;19.80;67.30;;;;;;5043253;28;20037;-72
2022/10/11 12:33:24;;;;;;;8.07;0.93;;;19.60;67.30;;;;;;5035929;28;20148;-72
2022/10/11 12:35:49;;;;;;;5.70;0.73;;;19.40;67.60;;;;;;5044825;28;20035;-73
2022/10/11 12:38:17;;;;;;;8.55;1.25;;;19.30;67.60;;;;;;5035265;28;20393;-72
2022/10/11 12:40:46;;;;;;;8.57;1.13;;;19.10;68.30;;;;;;5039340;28;20052;-70
2022/10/11 12:43:14;;;;;;;10.48;1.27;;;19.00;69.10;;;;;;5037865;28;20104;-71
2022/10/11 12:45:42;;;;;;;6.88;1.15;;;18.90;68.80;;;;;;5036091;28;20373;-72
2022/10/11 12:48:21;;;;;;;8.48;0.93;;;18.80;68.60;;;;;;5048811;28;20025;-72
2022/10/11 12:50:57;;;;;;;8.43;1.10;;;18.70;68.00;;;;;;5043453;28;20404;-73
2022/10/11 12:53:44;;;;;;;8.65;0.93;;;18.60;68.30;;;;;;5034804;28;20021;-72
2022/10/11 12:56:36;;;;;;;8.88;1.27;;;18.50;68.50;;;;;;5045546;28;20033;-72
2022/10/11 12:59:03;;;;;;;7.57;0.77;;;18.50;68.90;;;;;;5022660;28;20404;-71
2022/10/11 13:01:35;;;;;;;9.35;1.23;;;18.40;69.30;;;;;;5043081;28;20020;-71
2022/10/11 13:04:08;;;;;;;5.33;0.80;;;18.40;70.00;;;;;;5033998;28;20033;-72
2022/10/11 13:06:45;;;;;;;8.43;1.30;;;18.30;70.80;;;;;;5037571;28;20112;-71
2022/10/11 13:09:42;;;;;;;6.95;1.17;;;18.20;71.40;;;;;;5029352;28;20108;-72